createdAt,value
2019-05-22T00:02:27.068Z,4.20
2019-05-22T00:04:58.259Z,1.42
2019-05-22T00:07:28.564Z,2.58
2019-05-22T00:09:58.715Z,2.50
2019-05-22T00:12:29.024Z,3.17
2019-05-22T00:14:58.596Z,3.67
2019-05-22T00:17:30.500Z,2.77
2019-05-22T00:20:03.412Z,5.30
2019-05-22T00:22:34.421Z,5.15
2019-05-22T00:25:05.096Z,4.75
2019-05-22T00:27:37.018Z,2.86
2019-05-22T00:30:10.030Z,2.43
2019-05-22T00:32:41.822Z,3.52
2019-05-22T00:35:12.602Z,2.35
2019-05-22T00:37:42.692Z,5.75
2019-05-22T00:40:15.057Z,1.03
2019-05-22T00:43:02.562Z,1.98
2019-05-22T00:45:20.573Z,1.43
2019-05-22T00:47:52.062Z,5.65
2019-05-22T00:50:24.582Z,1.53
2019-05-22T00:52:55.785Z,1.80
2019-05-22T00:55:47.519Z,1.67
2019-05-22T00:58:19.708Z,7.33
2019-05-22T01:00:52.222Z,1.50
2019-05-22T01:03:23.381Z,1.72
2019-05-22T01:05:54.469Z,6.97
2019-05-22T01:08:25.898Z,1.63
2019-05-22T01:10:56.993Z,1.62
2019-05-22T01:13:32.556Z,4.63
2019-05-22T01:16:02.547Z,6.37
2019-05-22T01:18:32.080Z,2.05
2019-05-22T01:21:03.296Z,2.83
2019-05-22T01:23:34.632Z,1.63
2019-05-22T01:26:05.664Z,3.33
2019-05-22T01:28:36.962Z,3.43
2019-05-22T01:31:11.033Z,3.00
2019-05-22T01:33:44.985Z,2.87
2019-05-22T01:36:19.260Z,3.00
2019-05-22T01:38:48.732Z,4.43
2019-05-22T01:41:34.127Z,5.30
2019-05-22T01:44:06.863Z,3.55
2019-05-22T01:46:39.763Z,5.47
2019-05-22T01:49:12.201Z,3.90
2019-05-22T01:51:43.009Z,5.90
2019-05-22T01:54:13.218Z,4.17
2019-05-22T01:56:43.231Z,8.00
2019-05-22T01:59:13.523Z,6.03
2019-05-22T02:01:44.729Z,4.70
2019-05-22T02:04:15.044Z,3.95
2019-05-22T02:06:45.039Z,8.20
2019-05-22T02:09:27.938Z,6.92
2019-05-22T02:12:00.385Z,8.70
2019-05-22T02:14:30.707Z,4.55
2019-05-22T02:17:01.293Z,6.20
2019-05-22T02:19:31.210Z,5.87
2019-05-22T02:22:01.662Z,5.00
2019-05-22T02:24:32.017Z,4.12
2019-05-22T02:27:03.072Z,7.27
2019-05-22T02:29:32.726Z,6.70
2019-05-22T02:32:02.108Z,5.93
2019-05-22T02:34:31.630Z,10.07
2019-05-22T02:37:01.545Z,4.42
2019-05-22T02:39:35.534Z,6.30
2019-05-22T02:42:12.321Z,6.20
2019-05-22T02:44:42.675Z,3.47
2019-05-22T02:47:19.692Z,2.83
2019-05-22T02:49:45.400Z,5.70
2019-05-22T02:52:16.599Z,5.40
2019-05-22T02:54:47.250Z,4.85
2019-05-22T02:57:17.827Z,5.32
2019-05-22T02:59:48.469Z,2.25
2019-05-22T03:02:18.312Z,3.85
2019-05-22T03:05:01.729Z,6.20
2019-05-22T03:07:31.608Z,7.42
2019-05-22T03:10:02.432Z,3.90
2019-05-22T03:12:33.168Z,2.57
2019-05-22T03:15:04.030Z,2.80
2019-05-22T03:17:35.121Z,1.87
2019-05-22T03:20:12.998Z,2.20
2019-05-22T03:22:55.300Z,4.30
2019-05-22T03:25:28.083Z,5.15
2019-05-22T03:27:57.754Z,3.22
2019-05-22T03:30:34.499Z,6.20
2019-05-22T03:33:06.265Z,10.10
2019-05-22T03:35:47.802Z,4.83
2019-05-22T03:38:18.996Z,3.20
2019-05-22T03:40:51.108Z,7.13
2019-05-22T03:43:26.999Z,6.60
2019-05-22T03:45:58.975Z,6.53
2019-05-22T03:51:20.141Z,6.78
2019-05-22T03:53:49.910Z,7.87
2019-05-22T03:56:21.217Z,10.65
2019-05-22T03:58:50.595Z,8.27
2019-05-22T04:01:22.085Z,9.77
2019-05-22T04:03:51.546Z,7.57
2019-05-22T04:06:23.301Z,5.65
2019-05-22T04:08:54.124Z,6.43
2019-05-22T04:11:26.557Z,12.73
2019-05-22T04:13:55.930Z,8.87
2019-05-22T04:16:27.498Z,13.03
2019-05-22T04:18:57.738Z,8.20
2019-05-22T04:21:30.307Z,5.33
2019-05-22T04:24:00.674Z,7.25
2019-05-22T04:26:32.762Z,4.87
2019-05-22T04:29:03.465Z,5.27
2019-05-22T04:31:42.028Z,1.97
2019-05-22T04:34:11.848Z,2.77
2019-05-22T04:36:41.224Z,1.67
2019-05-22T04:39:15.530Z,3.27
2019-05-22T04:41:45.476Z,5.17
2019-05-22T04:44:15.395Z,4.37
2019-05-22T04:46:44.830Z,6.33
2019-05-22T04:49:14.376Z,2.37
2019-05-22T04:51:44.231Z,3.52
2019-05-22T04:54:13.780Z,2.93
2019-05-22T04:56:43.948Z,3.87
2019-05-22T04:59:14.426Z,11.93
2019-05-22T05:01:43.877Z,12.30
2019-05-22T05:04:14.013Z,5.20
2019-05-22T05:06:44.167Z,7.10
2019-05-22T05:09:15.827Z,6.07
2019-05-22T05:11:45.421Z,9.83
2019-05-22T05:14:14.883Z,17.80
2019-05-22T05:16:44.407Z,7.33
2019-05-22T05:19:13.886Z,7.30
2019-05-22T05:21:44.199Z,7.97
2019-05-22T05:24:14.049Z,10.30
2019-05-22T05:26:44.550Z,4.90
2019-05-22T05:29:28.549Z,5.40
2019-05-22T05:31:59.672Z,6.87
2019-05-22T05:34:32.357Z,16.13
2019-05-22T05:37:03.228Z,11.43
2019-05-22T05:39:40.020Z,4.28
2019-05-22T05:42:09.764Z,9.23
2019-05-22T05:44:39.227Z,5.95
2019-05-22T05:47:09.356Z,4.45
2019-05-22T05:49:39.192Z,6.33
2019-05-22T05:52:10.278Z,3.47
2019-05-22T05:54:41.616Z,7.07
2019-05-22T05:57:37.631Z,6.87
2019-05-22T06:00:14.090Z,4.78
2019-05-22T06:02:56.011Z,9.55
2019-05-22T06:05:16.312Z,5.25
2019-05-22T06:07:45.939Z,11.35
2019-05-22T06:10:31.331Z,15.93
2019-05-22T06:13:01.637Z,5.93
2019-05-22T06:15:46.588Z,4.65
2019-05-22T06:18:21.104Z,7.53
2019-05-22T06:21:03.219Z,7.00
2019-05-22T06:23:31.934Z,4.23
2019-05-22T06:26:02.429Z,9.18
2019-05-22T06:28:39.222Z,10.87
2019-05-22T06:31:13.298Z,7.58
2019-05-22T06:33:43.029Z,9.08
2019-05-22T06:36:14.318Z,7.20
2019-05-22T06:38:53.269Z,12.00
2019-05-22T06:41:28.250Z,8.80
2019-05-22T06:44:20.034Z,11.57
2019-05-22T06:49:35.907Z,10.28
2019-05-22T06:52:07.518Z,7.47
2019-05-22T06:54:38.413Z,9.63
2019-05-22T06:57:13.664Z,6.57
2019-05-22T06:59:43.565Z,7.97
2019-05-22T07:02:15.216Z,14.55
2019-05-22T07:04:44.990Z,10.23
2019-05-22T07:07:15.601Z,9.15
2019-05-22T07:09:45.630Z,11.28
2019-05-22T07:12:18.189Z,9.30
2019-05-22T07:15:06.752Z,11.60
2019-05-22T07:17:37.352Z,15.63
2019-05-22T07:20:08.178Z,11.20
2019-05-22T07:22:37.892Z,5.47
2019-05-22T07:25:09.506Z,7.55
2019-05-22T07:27:41.169Z,9.23
2019-05-22T07:30:11.057Z,6.87
2019-05-22T07:32:40.946Z,5.85
2019-05-22T07:35:10.552Z,4.25
2019-05-22T07:37:42.613Z,2.75
2019-05-22T07:40:13.435Z,0.40
2019-05-22T07:42:42.897Z,0.60
2019-05-22T07:45:13.428Z,0.20
2019-05-22T07:47:42.874Z,0.20
2019-05-22T07:50:13.353Z,0.45
2019-05-22T07:52:43.695Z,0.20
2019-05-22T07:55:14.241Z,0.20
2019-05-22T07:57:46.952Z,0.25
2019-05-22T08:00:17.272Z,0.90
2019-05-22T08:02:49.091Z,0.10
2019-05-22T08:05:21.244Z,0.10
2019-05-22T08:07:52.901Z,0.45
2019-05-22T08:10:22.720Z,0.20
2019-05-22T08:12:53.604Z,0.20
2019-05-22T08:15:23.821Z,0.20
2019-05-22T08:17:53.495Z,0.70
2019-05-22T08:20:23.318Z,0.55
2019-05-22T08:22:55.469Z,0.10
2019-05-22T08:25:25.445Z,0.00
2019-05-22T08:27:56.052Z,0.00
2019-05-22T08:30:25.829Z,0.20
2019-05-22T08:32:58.375Z,0.13
2019-05-22T08:35:28.431Z,0.30
2019-05-22T08:37:58.290Z,7.80
2019-05-22T08:40:28.864Z,1.50
2019-05-22T08:42:58.585Z,0.08
2019-05-22T08:45:28.786Z,0.10
2019-05-22T08:47:58.841Z,0.10
2019-05-22T08:50:31.073Z,0.20
2019-05-22T08:53:01.024Z,0.37
2019-05-22T08:55:34.212Z,0.10
2019-05-22T08:58:05.874Z,0.17
2019-05-22T09:00:35.564Z,0.20
2019-05-22T09:03:05.856Z,0.20
2019-05-22T09:05:35.402Z,0.20
2019-05-22T09:08:04.969Z,0.10
2019-05-22T09:10:34.529Z,0.60
2019-05-22T09:13:04.347Z,0.80
2019-05-22T09:15:34.923Z,0.30
2019-05-22T09:18:05.020Z,0.10
2019-05-22T09:20:48.129Z,0.35
2019-05-22T09:25:35.686Z,0.10
2019-05-22T09:28:06.691Z,0.10
2019-05-22T09:30:37.537Z,0.20
2019-05-22T09:33:08.819Z,0.23
2019-05-22T09:35:38.567Z,0.03
2019-05-22T09:38:07.967Z,0.40
2019-05-22T09:40:37.775Z,0.10
2019-05-22T09:43:07.220Z,1.07
2019-05-22T09:45:36.952Z,0.68
2019-05-22T09:48:07.823Z,0.30
2019-05-22T09:50:38.918Z,0.33
2019-05-22T09:53:09.216Z,0.20
2019-05-22T09:55:39.509Z,3.60
2019-05-22T09:58:09.035Z,0.20
2019-05-22T10:00:39.184Z,0.10
2019-05-22T10:03:09.126Z,0.30
2019-05-22T10:05:38.727Z,0.97
2019-05-22T10:08:08.831Z,0.65
2019-05-22T10:10:39.668Z,0.10
2019-05-22T10:13:09.699Z,0.20
2019-05-22T10:15:39.824Z,0.93
2019-05-22T10:18:09.445Z,0.30
2019-05-22T10:20:39.450Z,0.20
2019-05-22T10:23:15.514Z,0.10
2019-05-22T10:25:41.071Z,0.10
2019-05-22T10:28:12.133Z,0.10
2019-05-22T10:30:41.660Z,0.10
2019-05-22T10:33:11.228Z,1.10
2019-05-22T10:35:41.099Z,0.10
2019-05-22T10:38:10.508Z,3.52
2019-05-22T10:40:40.000Z,3.70
2019-05-22T10:43:09.652Z,0.25
2019-05-22T10:45:39.428Z,0.43
2019-05-22T10:48:08.886Z,0.15
2019-05-22T10:50:38.913Z,0.83
2019-05-22T10:53:09.102Z,0.63
2019-05-22T10:55:39.499Z,1.33
2019-05-22T10:58:09.619Z,2.17
2019-05-22T11:00:40.036Z,0.10
2019-05-22T11:03:10.084Z,0.20
2019-05-22T11:05:41.452Z,2.00
2019-05-22T11:08:12.111Z,0.50
2019-05-22T11:10:45.033Z,0.25
2019-05-22T11:13:12.983Z,0.37
2019-05-22T11:15:42.366Z,0.23
2019-05-22T11:18:12.028Z,0.13
2019-05-22T11:20:43.211Z,0.10
2019-05-22T11:23:12.870Z,0.57
2019-05-22T11:25:42.254Z,1.00
2019-05-22T11:28:11.724Z,0.55
2019-05-22T11:30:42.596Z,0.68
2019-05-22T11:33:12.265Z,0.30
2019-05-22T11:35:41.989Z,1.05
2019-05-22T11:38:12.028Z,0.20
2019-05-22T11:40:42.679Z,0.26
2019-05-22T11:43:13.062Z,0.55
2019-05-22T11:45:45.352Z,2.12
2019-05-22T11:48:14.638Z,0.53
2019-05-22T11:50:44.569Z,0.40
2019-05-22T11:53:14.821Z,0.20
2019-05-22T11:55:46.084Z,0.30
2019-05-22T11:58:15.490Z,0.30
2019-05-22T12:00:46.119Z,0.53
2019-05-22T12:03:15.635Z,0.40
2019-05-22T12:05:45.789Z,0.30
2019-05-22T12:08:15.733Z,0.30
2019-05-22T12:10:45.676Z,0.62
2019-05-22T12:13:15.492Z,1.05
2019-05-22T12:15:45.351Z,0.40
2019-05-22T12:18:15.889Z,1.02
2019-05-22T12:20:46.446Z,0.45
2019-05-22T12:23:16.086Z,0.70
2019-05-22T12:25:46.522Z,6.33
2019-05-22T12:28:16.597Z,2.52
2019-05-22T12:30:47.999Z,0.42
2019-05-22T12:33:18.324Z,0.40
2019-05-22T12:35:49.210Z,0.50
2019-05-22T12:38:19.441Z,0.57
2019-05-22T12:40:48.926Z,1.47
2019-05-22T12:43:18.620Z,4.12
2019-05-22T12:45:49.040Z,0.60
2019-05-22T12:48:19.942Z,0.65
2019-05-22T12:50:49.386Z,0.60
2019-05-22T12:53:19.031Z,0.50
2019-05-22T12:55:49.387Z,0.50
2019-05-22T12:58:20.338Z,0.64
2019-05-22T13:00:50.717Z,2.10
2019-05-22T13:03:20.742Z,0.72
2019-05-22T13:05:50.744Z,0.30
2019-05-22T13:08:21.025Z,0.50
2019-05-22T13:10:52.424Z,0.60
2019-05-22T13:13:22.717Z,0.55
2019-05-22T13:15:52.438Z,0.60
2019-05-22T13:18:24.029Z,3.65
2019-05-22T13:20:54.263Z,0.50
2019-05-22T13:23:26.695Z,0.35
2019-05-22T13:25:56.315Z,0.60
2019-05-22T13:28:28.349Z,0.60
2019-05-22T13:30:59.863Z,0.60
2019-05-22T13:33:29.396Z,0.62
2019-05-22T13:35:59.506Z,0.93
2019-05-22T13:38:29.129Z,0.53
2019-05-22T13:40:58.813Z,0.33
2019-05-22T13:43:28.661Z,0.68
2019-05-22T13:45:58.126Z,0.40
2019-05-22T13:48:28.320Z,0.50
2019-05-22T13:50:59.263Z,0.53
2019-05-22T13:53:29.613Z,0.60
2019-05-22T13:55:59.622Z,2.77
2019-05-22T13:58:30.051Z,3.20
2019-05-22T14:00:59.806Z,1.07
2019-05-22T14:03:29.653Z,0.60
2019-05-22T14:05:59.417Z,0.63
2019-05-22T14:08:29.755Z,0.48
2019-05-22T14:10:59.259Z,0.60
2019-05-22T14:13:29.197Z,0.70
2019-05-22T14:15:59.017Z,2.02
2019-05-22T14:18:29.527Z,1.40
2019-05-22T14:20:59.094Z,11.26
2019-05-22T14:23:29.145Z,2.58
2019-05-22T14:25:59.663Z,1.43
2019-05-22T14:28:30.047Z,2.85
2019-05-22T14:30:59.513Z,0.50
2019-05-22T14:33:30.122Z,0.80
2019-05-22T14:35:59.672Z,1.45
2019-05-22T14:38:30.325Z,0.54
2019-05-22T14:41:01.428Z,1.60
2019-05-22T14:43:31.228Z,0.80
2019-05-22T14:46:01.435Z,7.50
2019-05-22T14:48:31.220Z,6.90
2019-05-22T14:51:01.371Z,1.53
2019-05-22T14:53:31.794Z,6.93
2019-05-22T14:56:01.925Z,1.90
2019-05-22T14:58:32.633Z,1.30
2019-05-22T15:01:02.616Z,1.80
2019-05-22T15:03:32.880Z,0.50
2019-05-22T15:06:02.542Z,1.37
2019-05-22T15:08:33.240Z,0.97
2019-05-22T15:11:03.103Z,0.62
2019-05-22T15:13:34.212Z,0.62
2019-05-22T15:16:03.680Z,3.17
2019-05-22T15:18:34.069Z,1.70
2019-05-22T15:21:09.432Z,1.45
2019-05-22T15:23:39.366Z,6.75
2019-05-22T15:26:09.275Z,0.80
2019-05-22T15:28:39.419Z,0.77
2019-05-22T15:31:09.120Z,0.60
2019-05-22T15:33:39.253Z,1.67
2019-05-22T15:36:10.537Z,2.00
2019-05-22T15:38:40.938Z,0.60
2019-05-22T15:41:11.415Z,0.60
2019-05-22T15:43:44.381Z,0.80
2019-05-22T15:46:15.730Z,0.53
2019-05-22T15:48:47.423Z,1.57
2019-05-22T15:53:48.086Z,0.60
2019-05-22T15:56:18.914Z,0.70
2019-05-22T15:58:51.479Z,0.50
2019-05-22T16:01:22.577Z,0.70
2019-05-22T16:03:53.266Z,0.72
2019-05-22T16:06:25.968Z,0.90
2019-05-22T16:08:57.297Z,1.07
2019-05-22T16:11:27.598Z,1.27
2019-05-22T16:13:59.647Z,0.75
2019-05-22T16:19:03.022Z,0.78
2019-05-22T16:21:33.422Z,1.87
2019-05-22T16:24:03.988Z,0.65
2019-05-22T16:26:33.489Z,0.68
2019-05-22T16:29:03.408Z,0.55
2019-05-22T16:31:33.397Z,1.02
2019-05-22T16:34:02.869Z,1.40
2019-05-22T16:36:33.152Z,1.45
2019-05-22T16:39:04.288Z,0.85
2019-05-22T16:41:34.816Z,1.00
2019-05-22T16:44:04.648Z,1.40
2019-05-22T16:46:35.182Z,1.22
2019-05-22T16:49:04.796Z,0.70
2019-05-22T16:51:34.828Z,0.50
2019-05-22T16:54:08.014Z,2.05
2019-05-22T16:56:40.492Z,0.73
2019-05-22T16:59:11.897Z,1.27
2019-05-22T17:01:57.759Z,0.72
2019-05-22T17:04:14.552Z,0.60
2019-05-22T17:06:45.292Z,2.03
2019-05-22T17:09:16.475Z,1.77
2019-05-22T17:11:46.968Z,1.30
2019-05-22T17:14:18.005Z,0.60
2019-05-22T17:16:47.451Z,0.40
2019-05-22T17:19:27.051Z,1.05
2019-05-22T17:21:50.212Z,2.08
2019-05-22T17:24:20.031Z,0.50
2019-05-22T17:26:52.476Z,0.70
2019-05-22T17:29:23.342Z,0.67
2019-05-22T17:31:53.322Z,0.60
2019-05-22T17:34:33.500Z,0.73
2019-05-22T17:37:27.915Z,0.90
2019-05-22T17:39:57.654Z,0.68
2019-05-22T17:42:28.027Z,0.70
2019-05-22T17:44:57.673Z,1.13
2019-05-22T17:47:27.736Z,0.70
2019-05-22T17:49:58.781Z,0.90
2019-05-22T17:52:28.494Z,1.57
2019-05-22T17:54:58.721Z,1.07
2019-05-22T17:57:29.672Z,1.00
2019-05-22T17:59:59.341Z,0.90
2019-05-22T18:02:30.670Z,1.17
2019-05-22T18:05:01.955Z,0.97
2019-05-22T18:07:33.510Z,2.27
2019-05-22T18:10:03.465Z,1.55
2019-05-22T18:12:33.896Z,2.23
2019-05-22T18:15:04.380Z,2.30
2019-05-22T18:17:33.926Z,1.30
2019-05-22T18:20:04.544Z,2.93
2019-05-22T18:22:34.268Z,1.37
2019-05-22T18:25:05.163Z,3.45
2019-05-22T18:27:35.221Z,2.00
2019-05-22T18:30:08.927Z,1.30
2019-05-22T18:32:41.857Z,1.60
2019-05-22T18:35:13.961Z,1.57
2019-05-22T18:37:43.486Z,1.82
2019-05-22T18:40:13.811Z,1.55
2019-05-22T18:42:43.366Z,2.03
2019-05-22T18:45:13.772Z,1.85
2019-05-22T18:47:44.090Z,1.82
2019-05-22T18:50:14.791Z,1.70
2019-05-22T18:52:48.933Z,2.60
2019-05-22T18:55:20.801Z,1.73
2019-05-22T18:57:50.341Z,2.00
2019-05-22T19:00:23.163Z,2.70
2019-05-22T19:02:52.855Z,1.30
2019-05-22T19:05:25.363Z,1.75
2019-05-22T19:07:55.099Z,2.15
2019-05-22T19:10:24.803Z,4.30
2019-05-22T19:12:54.273Z,3.40
2019-05-22T19:15:24.867Z,6.03
2019-05-22T19:17:54.585Z,2.17
2019-05-22T19:20:24.211Z,6.53
2019-05-22T19:23:00.547Z,3.15
2019-05-22T19:25:25.740Z,4.97
2019-05-22T19:27:55.183Z,2.90
2019-05-22T19:30:26.298Z,6.27
2019-05-22T19:32:56.149Z,7.47
2019-05-22T19:35:25.622Z,4.37
2019-05-22T19:37:55.813Z,8.37
2019-05-22T19:40:26.243Z,4.27
2019-05-22T19:42:57.325Z,3.22
2019-05-22T19:45:30.610Z,3.02
2019-05-22T19:47:58.590Z,1.70
2019-05-22T19:50:29.181Z,1.42
2019-05-22T19:53:15.729Z,6.92
2019-05-22T19:55:31.248Z,4.47
2019-05-22T19:58:01.461Z,3.80
2019-05-22T20:00:31.721Z,3.80
2019-05-22T20:03:02.044Z,1.97
2019-05-22T20:05:33.294Z,6.22
2019-05-22T20:08:03.504Z,2.33
2019-05-22T20:10:33.894Z,2.47
2019-05-22T20:13:05.666Z,7.47
2019-05-22T20:18:04.917Z,3.37
2019-05-22T20:20:34.702Z,3.33
2019-05-22T20:23:05.111Z,3.10
2019-05-22T20:25:35.722Z,2.83
2019-05-22T20:28:07.028Z,4.92
2019-05-22T20:30:36.717Z,2.40
2019-05-22T20:33:07.985Z,3.10
2019-05-22T20:35:37.920Z,4.67
2019-05-22T20:38:08.065Z,5.87
2019-05-22T20:40:37.757Z,3.22
2019-05-22T20:43:08.848Z,2.63
2019-05-22T20:45:40.943Z,3.50
2019-05-22T20:48:13.798Z,2.40
2019-05-22T20:50:44.052Z,1.80
2019-05-22T20:53:16.144Z,3.30
2019-05-22T20:55:46.546Z,3.23
2019-05-22T20:58:17.739Z,2.55
2019-05-22T21:00:49.020Z,1.60
2019-05-22T21:03:21.553Z,1.97
2019-05-22T21:05:52.838Z,2.15
2019-05-22T21:08:25.156Z,1.87
2019-05-22T21:10:56.285Z,2.93
2019-05-22T21:13:26.118Z,1.90
2019-05-22T21:15:56.059Z,4.63
2019-05-22T21:18:28.329Z,1.92
2019-05-22T21:20:57.723Z,2.90
2019-05-22T21:23:29.298Z,2.65
2019-05-22T21:28:28.014Z,2.37
2019-05-22T21:30:57.642Z,1.85
2019-05-22T21:33:27.983Z,2.98
2019-05-22T21:35:57.653Z,3.25
2019-05-22T21:38:27.091Z,3.77
2019-05-22T21:40:58.637Z,5.28
2019-05-22T21:43:29.325Z,3.53
2019-05-22T21:45:59.587Z,3.17
2019-05-22T21:48:29.808Z,1.98
2019-05-22T21:51:00.545Z,3.32
2019-05-22T21:53:30.514Z,3.57
2019-05-22T21:56:04.705Z,2.67
2019-05-22T21:58:32.091Z,2.62
2019-05-22T22:01:04.754Z,2.83
2019-05-22T22:03:38.750Z,3.33
2019-05-22T22:06:08.311Z,6.25
2019-05-22T22:08:37.978Z,3.70
2019-05-22T22:11:08.721Z,4.07
2019-05-22T22:13:39.049Z,4.17
2019-05-22T22:16:08.583Z,3.03
2019-05-22T22:18:39.941Z,5.80
2019-05-22T22:21:09.614Z,6.13
2019-05-22T22:23:40.851Z,4.63
2019-05-22T22:26:24.717Z,5.20
2019-05-22T22:28:42.458Z,3.27
2019-05-22T22:31:20.414Z,2.90
2019-05-22T22:33:52.933Z,5.27
2019-05-22T22:36:23.030Z,4.60
2019-05-22T22:38:54.122Z,4.45
2019-05-22T22:41:24.106Z,6.53
2019-05-22T22:43:55.000Z,2.90
2019-05-22T22:46:45.964Z,6.30
2019-05-22T22:49:17.324Z,6.58
2019-05-22T22:51:48.913Z,3.80
2019-05-22T22:54:19.511Z,8.85
2019-05-22T22:56:49.172Z,4.95
2019-05-22T22:59:18.922Z,4.85
2019-05-22T23:01:52.676Z,4.80
2019-05-22T23:04:24.527Z,3.40
2019-05-22T23:06:57.459Z,4.13
2019-05-22T23:09:27.690Z,3.77
2019-05-22T23:11:57.618Z,9.00
2019-05-22T23:14:27.658Z,6.07
2019-05-22T23:16:57.171Z,4.07
2019-05-22T23:19:33.540Z,4.00
2019-05-22T23:22:03.245Z,4.70
2019-05-22T23:24:33.973Z,7.90
2019-05-22T23:27:04.962Z,2.72
2019-05-22T23:29:34.812Z,3.83
2019-05-22T23:32:06.193Z,3.80
2019-05-22T23:34:36.151Z,5.23
2019-05-22T23:37:07.586Z,4.05
2019-05-22T23:39:37.205Z,4.87
2019-05-22T23:42:10.031Z,2.77
2019-05-22T23:44:41.084Z,7.17
2019-05-22T23:47:11.312Z,3.33
2019-05-22T23:49:41.438Z,2.70
2019-05-22T23:52:12.903Z,2.87
2019-05-22T23:54:44.066Z,5.63
2019-05-22T23:57:15.458Z,3.33
2019-05-22T23:59:47.048Z,2.30
